Airfield :
LOGIN :

Register | Disclaimer

   EN    FR    IT 

 










Legend :    VFR   Marginal VFR   IFR   Intensive IFR   Very Intensive IFR
Visi :
Ceiling :
>= 8 km
>= 3000ft
5 to 8 km
1000 to 3000 ft
1500m to 5 km
500 to 1000 ft
800 to 1500m
200 to 500 ft
< 800m
< 200 ft
Symbols :   Thunderstorms  Fog  Heavy snow  Heavy precipitations  Wind > 20 kt
SIGMETs :     Misc.  Thunderstorms  Icing  Turbulence  Mountain Waves  Volcanic Ashes







- Airport Elevation : 1363 ft


ETIC - Grafenwohr Army Air Field

CURRENT METAR :
  • 190956Z AUTO 00000KT 9999 FEW050 05/01 A3010 RMK AO2 SLP216 T00510008 FZRANO $

EXPIRED METARs :
  • 190856Z AUTO 00000KT 9999 CLR 02/00 A3010 RMK AO2 SLP218 T00160001 52011 FZRANO $
  • 190756Z AUTO 00000KT 9999 CLR M02/M02 A3010 RMK AO2 SLP222 T10231024 FZRANO $

TAF TAF ETIC
Valid from the 19 at 04:00 until the 20 at 10:00 UTC


1904/2010 VRB06KT 9999 SKC QNH3006INS
BECMG 1911/1912 26010G15KT 9999 BKN030 610303 510053 QNH3008INS
TEMPO 1912/1915 8000 -SHRA
BECMG 1914/1915 26009KT 9999 FEW012 BKN020 610303 510053 QNH3008INS
BECMG 1916/1917 26009KT 9999 BKN015 610303 510053 QNH3010INS
BECMG 1918/1919 VRB06KT 8000 BR BKN006 610303 510053 QNH3012INS TX08/1912Z TNM06/1904Z
No reported NOTAMs for that airfield.



MET'MAP, your aeronautical weather chart ! - Copyright ORBIFLY December 2007 - Disclaimer

ORBIFLY MET'MAP TEAM :

Programming & Development : Alexandra Zaïnal
Concept & Development : Baudouin d'Aumeries
Co-Development & Prog : Marc-Olivier Méhu
Technical & hardware support : Manuel Goepfert

Contact : metmap@orbifly.com




SOURCES & CREDITS :

   NOAA